ADDS METAR Data INFO
IDs: Format: Raw Decoded Include TAF

Data at: 0255 UTC 21 Oct 2017

KDKK 210253Z AUTO 21007KT 10SM CLR 12/04 A3021 RMK AO2 SLP230 T01220044 53005
KDKK 210153Z AUTO 20006KT 10SM CLR 10/07 A3019 RMK AO2 SLP226 T01000067
KDKK 210053Z AUTO 18003KT 10SM CLR 08/07 A3018 RMK AO2 SLP225 T00780067
KDKK 202353Z AUTO 16003KT 10SM CLR 09/08 A3019 RMK AO2 SLP228 T00890078 10194 20089 56009
KDKK 202253Z AUTO 16003KT 10SM CLR 11/08 A3020 RMK AO2 SLP231 T01060083
KDKK 202153Z AUTO 00000KT 10SM CLR 17/09 A3021 RMK AO2 SLP231 T01670094
KDKK 202053Z AUTO VRB04KT 10SM CLR 17/09 A3022 RMK AO2 SLP235 T01720094 56012
KDKK 201953Z AUTO 29006KT 10SM CLR 18/09 A3023 RMK AO2 SLP237 T01830089
KDKK 201853Z AUTO 33005KT 10SM CLR 19/09 A3023 RMK AO2 SLP238 T01940094
KDKK 201753Z AUTO 27005KT 10SM CLR 18/09 A3026 RMK AO2 SLP247 T01830089 10183 20050 58009
KDKK 201653Z AUTO 27008KT 10SM CLR 18/09 A3027 RMK AO2 SLP252 T01780089
KDKK 201553Z AUTO VRB03KT 10SM CLR 18/04 A3028 RMK AO2 SLP256 T01780044
KDKK 201453Z AUTO 21004KT 10SM CLR 16/07 A3029 RMK AO2 SLP256 T01610072 50009
KDKK 201353Z AUTO 21004KT 10SM CLR 14/08 A3030 RMK AO2 SLP260 T01390083
KDKK 201253Z AUTO 21003KT 10SM CLR 10/08 A3029 RMK AO2 SLP259 T01000078
KDKK 201153Z AUTO 21003KT 10SM CLR 06/04 A3026 RMK AO2 SLP249 T00610044 10106 20050 51022
KDKK 201053Z AUTO 18004KT 10SM CLR 06/05 A3023 RMK AO2 SLP240 T00560050
KDKK 200953Z AUTO 18005KT 10SM CLR 06/05 A3022 RMK AO2 SLP234 T00560050
KDKK 200853Z AUTO 20004KT 10SM CLR 07/06 A3019 RMK AO2 SLP225 T00670056 53013
KDKK 200753Z AUTO 23004KT 10SM CLR 08/08 A3017 RMK AO2 SLP217 T00830078
KDKK 200653Z AUTO 21004KT 10SM CLR 10/08 A3016 RMK AO2 SLP214 T01000083
KDKK 200553Z AUTO 21004KT 10SM CLR 08/08 A3015 RMK AO2 SLP211 T00830083 10150 20072 53004
KDKK 200453Z AUTO 21003KT 8SM CLR 08/08 A3015 RMK AO2 SLP210 T00830083 402000072
KDKK 200353Z AUTO 18004KT 3SM BR CLR 08/08 A3014 RMK AO2 SLP206 T00780078
KDKK 200350Z AUTO 19004KT 2SM BR CLR 08/08 A3014 RMK AO2
KDKK 200340Z AUTO 20003KT 1SM BR CLR 09/09 A3014 RMK AO2 VIS 1/2V2 1/2 T00940094
KDKK 200333Z AUTO 18003KT 2 1/2SM BR CLR 09/09 A3014 RMK AO2 VIS 1 3/4V3 T00940094
KDKK 200322Z AUTO 19003KT 3SM BR CLR 09/09 A3014 RMK AO2 T00940094
KDKK 200314Z AUTO 00000KT 2 1/2SM BR CLR 10/10 A3014 RMK AO2 T01000100
KDKK 200253Z AUTO 17003KT 3SM BR CLR 10/10 A3014 RMK AO2 SLP207 T01000100 51011
KDKK 200245Z AUTO 17003KT 2 1/2SM BR CLR 11/10 A3014 RMK AO2 T01060100
KDKK 200153Z AUTO 00000KT 10SM CLR 13/12 A3014 RMK AO2 SLP205 T01330122
KDKK 200053Z AUTO 21005KT 10SM CLR 14/13 A3013 RMK AO2 SLP202 T01390128
KDKK 192353Z AUTO 22008KT 10SM CLR 15/13 A3011 RMK AO2 SLP196 T01500133 10200 20144 51018
KDKK 192253Z AUTO 22008KT 10SM CLR 16/13 A3009 RMK AO2 SLP191 T01610128
KDKK 192153Z AUTO 23011KT 10SM CLR 17/13 A3008 RMK AO2 PK WND 26026/2100 SLP184 T01670133
KDKK 192053Z AUTO 26012G18KT 10SM CLR 18/13 A3005 RMK AO2 SLP177 T01780133 55005
KDKK 191953Z AUTO 25010G20KT 10SM CLR 19/13 A3003 RMK AO2 SLP170 T01890128
KDKK 191853Z AUTO 25014G21KT 10SM CLR 18/12 A3006 RMK AO2 PK WND 22026/1800 SLP178 T01830122
KDKK 191753Z AUTO 24017G26KT 10SM CLR 18/11 A3007 RMK AO2 PK WND 24026/1719 SLP181 T01830106 10200 20122 58006
KDKK 191653Z AUTO 25017G25KT 10SM CLR 18/11 A3009 RMK AO2 SLP188 T01830106
KDKK 191553Z AUTO 22011G21KT 10SM CLR 19/09 A3008 RMK AO2 SLP185 T01940089